Time;durP1;ratioP1;P1;durP2;ratioP2;P2;SDS_P1;SDS_P2;PMS_P1;PMS_P2;Temp;Humidity;BMP_temperature;BMP_pressure;BME280_temperature;BME280_humidity;BME280_pressure;Samples;Min_cycle;Max_cycle;Signal;HPM_P1;HPM_P2
2021/12/27 00:00:40;;;;;;;57.42;18.48;;;;;;;;;;4981297;28;20073;-70
2021/12/27 00:03:06;;;;;;;53.80;18.73;;;;;;;;;;4982151;28;20149;-70
2021/12/27 00:05:32;;;;;;;62.22;19.88;;;-7.30;99.90;;;;;;4984278;28;20022;-70
2021/12/27 00:07:58;;;;;;;62.58;19.45;;;;;;;;;;4968881;28;20640;-70
2021/12/27 00:10:24;;;;;;;63.00;19.48;;;;;;;;;;4986542;28;20065;-70
2021/12/27 00:12:50;;;;;;;68.05;20.80;;;;;;;;;;4982309;28;20030;-70
2021/12/27 00:15:16;;;;;;;58.97;19.83;;;;;;;;;;4983967;28;20465;-70
2021/12/27 00:17:42;;;;;;;50.00;19.75;;;;;;;;;;4987961;28;20489;-70
2021/12/27 00:20:08;;;;;;;52.83;19.52;;;;;;;;;;4986320;28;20080;-70
2021/12/27 00:22:34;;;;;;;51.75;19.63;;;;;;;;;;4985344;28;20136;-70
2021/12/27 00:25:00;;;;;;;58.47;18.27;;;;;;;;;;4983810;28;20426;-70
2021/12/27 00:27:26;;;;;;;58.63;18.90;;;;;;;;;;4992661;28;20025;-70
2021/12/27 00:29:52;;;;;;;61.05;18.10;;;;;;;;;;4987080;28;20034;-70
2021/12/27 00:32:18;;;;;;;57.75;19.80;;;;;;;;;;4989733;28;20068;-70
2021/12/27 00:34:44;;;;;;;63.72;20.50;;;;;;;;;;4995324;28;20469;-70
2021/12/27 00:37:10;;;;;;;56.35;19.38;;;;;;;;;;4967871;28;20042;-70
2021/12/27 00:39:36;;;;;;;61.00;18.98;;;;;;;;;;4985725;28;20057;-70
2021/12/27 00:42:02;;;;;;;57.22;19.83;;;;;;;;;;4993775;28;20065;-70
2021/12/27 00:44:28;;;;;;;62.30;19.17;;;-7.30;99.90;;;;;;4994693;28;20103;-70
2021/12/27 00:46:54;;;;;;;55.33;19.58;;;;;;;;;;4993622;28;20037;-70
2021/12/27 00:49:20;;;;;;;62.25;18.17;;;;;;;;;;4991050;28;20034;-70
2021/12/27 00:51:46;;;;;;;56.92;18.15;;;;;;;;;;4991390;28;20034;-70
2021/12/27 00:54:12;;;;;;;53.75;18.13;;;;;;;;;;4993940;28;20108;-70
2021/12/27 00:56:37;;;;;;;64.78;19.63;;;;;;;;;;4993051;28;20041;-70
2021/12/27 00:59:03;;;;;;;51.90;18.83;;;;;;;;;;4984589;28;20031;-70
2021/12/27 01:01:29;;;;;;;48.72;16.45;;;;;;;;;;4985056;28;20768;-70
2021/12/27 01:03:55;;;;;;;59.03;18.50;;;;;;;;;;4985243;28;20034;-70
2021/12/27 01:06:21;;;;;;;51.78;16.88;;;;;;;;;;4986561;28;20246;-70
2021/12/27 01:08:47;;;;;;;54.08;18.30;;;;;;;;;;4988057;28;20112;-70
2021/12/27 01:14:01;;;;;;;62.47;18.70;;;;;;;;;;4992422;28;20149;-70
2021/12/27 01:16:27;;;;;;;56.28;19.95;;;;;;;;;;4989625;28;20061;-70
2021/12/27 01:18:53;;;;;;;55.05;19.77;;;;;;;;;;4983492;28;20475;-70
2021/12/27 01:21:19;;;;;;;58.67;19.67;;;;;;;;;;4987613;28;20137;-70
2021/12/27 01:23:45;;;;;;;59.00;18.75;;;;;;;;;;4987925;28;20030;-69
2021/12/27 01:26:11;;;;;;;58.88;19.00;;;;;;;;;;4989093;28;20443;-69
2021/12/27 01:28:37;;;;;;;54.88;19.48;;;;;;;;;;4990081;28;20041;-70
2021/12/27 01:31:03;;;;;;;52.58;18.35;;;;;;;;;;4988621;28;20042;-69
2021/12/27 01:33:31;;;;;;;58.88;18.92;;;;;;;;;;4991570;28;20032;-69
2021/12/27 01:35:57;;;;;;;58.75;18.58;;;;;;;;;;4989533;28;20107;-69
2021/12/27 01:38:23;;;;;;;52.33;18.92;;;;;;;;;;4989764;28;20517;-70
2021/12/27 01:40:49;;;;;;;61.78;20.50;;;;;;;;;;4985495;28;20030;-69
2021/12/27 01:43:15;;;;;;;56.90;18.35;;;;;;;;;;4984774;28;20029;-70
2021/12/27 01:45:41;;;;;;;60.70;19.48;;;;;;;;;;4987914;28;20026;-69
2021/12/27 01:48:07;;;;;;;60.92;19.30;;;-6.70;99.90;;;;;;4973032;28;20558;-69
2021/12/27 01:50:33;;;;;;;49.55;17.60;;;;;;;;;;4992288;28;20018;-69
2021/12/27 01:52:59;;;;;;;61.70;19.77;;;;;;;;;;4992220;28;20029;-69
2021/12/27 01:55:25;;;;;;;55.10;19.83;;;-6.80;99.90;;;;;;4991643;28;20109;-70
2021/12/27 01:57:51;;;;;;;60.17;19.75;;;;;;;;;;4984588;28;20557;-70
2021/12/27 02:00:17;;;;;;;59.85;19.60;;;;;;;;;;4984051;28;20038;-69
2021/12/27 02:02:43;;;;;;;61.20;20.95;;;;;;;;;;4983069;28;20048;-70
2021/12/27 02:05:09;;;;;;;55.22;19.90;;;;;;;;;;4985469;28;20030;-70
2021/12/27 02:07:35;;;;;;;57.05;19.20;;;;;;;;;;4992344;28;20033;-69
2021/12/27 02:10:03;;;;;;;55.55;19.35;;;;;;;;;;4988764;28;20033;-70
2021/12/27 02:12:29;;;;;;;54.90;18.35;;;;;;;;;;4987464;28;20038;-69
2021/12/27 02:14:55;;;;;;;56.58;18.88;;;;;;;;;;4988038;28;20073;-70
2021/12/27 02:17:21;;;;;;;59.05;19.05;;;;;;;;;;4983657;28;20069;-70
2021/12/27 02:19:47;;;;;;;69.15;21.70;;;;;;;;;;4989307;28;20474;-69
2021/12/27 02:22:13;;;;;;;52.47;18.85;;;;;;;;;;4985311;28;20137;-70
2021/12/27 02:24:40;;;;;;;59.15;20.73;;;;;;;;;;4985930;28;20145;-70
2021/12/27 02:27:06;;;;;;;66.85;19.55;;;;;;;;;;4987606;28;20034;-70
2021/12/27 02:29:32;;;;;;;60.00;20.52;;;;;;;;;;4988670;28;20034;-70
2021/12/27 02:31:58;;;;;;;59.03;20.13;;;;;;;;;;4992019;28;20038;-70
2021/12/27 02:34:24;;;;;;;66.80;20.30;;;;;;;;;;4989073;28;20030;-69
2021/12/27 02:36:50;;;;;;;56.10;18.02;;;;;;;;;;4983941;28;20044;-70
2021/12/27 02:39:16;;;;;;;56.13;19.58;;;;;;;;;;4983029;28;20065;-70
2021/12/27 02:41:42;;;;;;;60.47;19.42;;;;;;;;;;4984575;28;20034;-70
2021/12/27 02:44:08;;;;;;;62.20;20.27;;;;;;;;;;4984786;28;20164;-70
2021/12/27 02:46:34;;;;;;;65.07;20.48;;;;;;;;;;4990786;28;20079;-70
2021/12/27 02:49:00;;;;;;;53.72;18.60;;;;;;;;;;4990966;28;20491;-70
2021/12/27 02:51:26;;;;;;;58.22;19.80;;;;;;;;;;4991852;28;20045;-70
2021/12/27 02:53:52;;;;;;;60.58;20.67;;;;;;;;;;4995901;28;20796;-70
2021/12/27 02:56:18;;;;;;;59.10;20.83;;;;;;;;;;4983366;28;20030;-70
2021/12/27 02:58:44;;;;;;;59.30;21.33;;;;;;;;;;4984684;28;20080;-70
2021/12/27 03:01:10;;;;;;;66.05;20.67;;;;;;;;;;4988689;28;20041;-70
2021/12/27 03:03:36;;;;;;;64.38;20.52;;;;;;;;;;4987194;28;20158;-69
2021/12/27 03:06:03;;;;;;;72.60;21.30;;;;;;;;;;4986275;28;20098;-70
2021/12/27 03:08:28;;;;;;;65.45;20.98;;;;;;;;;;4983474;28;20050;-70
2021/12/27 03:10:54;;;;;;;61.10;21.08;;;;;;;;;;4991485;28;20091;-70
2021/12/27 03:13:20;;;;;;;66.20;20.70;;;;;;;;;;4987963;28;20034;-70
2021/12/27 03:15:46;;;;;;;63.55;22.20;;;;;;;;;;4982800;28;20065;-70
2021/12/27 03:18:12;;;;;;;62.95;21.20;;;;;;;;;;4984127;28;20038;-69
2021/12/27 03:20:38;;;;;;;62.92;21.95;;;;;;;;;;4986612;28;20116;-70
2021/12/27 03:23:04;;;;;;;60.60;20.33;;;;;;;;;;4983817;28;20479;-70
2021/12/27 03:25:30;;;;;;;68.07;21.98;;;;;;;;;;4987636;28;20363;-70
2021/12/27 03:27:56;;;;;;;65.63;20.75;;;;;;;;;;4987538;28;20042;-70
2021/12/27 03:30:22;;;;;;;55.53;20.60;;;;;;;;;;4994205;28;20053;-70
2021/12/27 03:32:48;;;;;;;59.20;21.13;;;;;;;;;;4991974;28;20042;-70
2021/12/27 03:35:15;;;;;;;59.25;21.23;;;;;;;;;;4981762;28;20038;-70
2021/12/27 03:37:41;;;;;;;68.68;21.20;;;;;;;;;;4983475;28;20513;-70
2021/12/27 03:40:07;;;;;;;60.80;22.10;;;;;;;;;;4982310;28;20042;-70
2021/12/27 03:42:33;;;;;;;63.63;22.17;;;;;;;;;;4988073;28;20534;-69
2021/12/27 03:44:59;;;;;;;59.15;21.88;;;;;;;;;;4986916;28;20438;-69
2021/12/27 03:47:25;;;;;;;64.60;22.17;;;;;;;;;;4982541;28;20034;-70
2021/12/27 03:49:51;;;;;;;69.78;22.58;;;;;;;;;;4990690;28;20466;-69
2021/12/27 03:52:17;;;;;;;67.13;22.27;;;;;;;;;;4992132;28;20050;-69
2021/12/27 03:54:43;;;;;;;66.82;22.80;;;;;;;;;;4985549;28;20035;-70
2021/12/27 03:57:09;;;;;;;69.60;20.73;;;;;;;;;;4987668;28;20072;-69
2021/12/27 04:02:10;;;;;;;;;;;-5.70;99.90;;;;;;4991759;28;20034;-70
2021/12/27 04:04:36;;;;;;;71.13;23.23;;;;;;;;;;4991445;28;19913;-70
2021/12/27 04:07:02;;;;;;;68.85;22.40;;;;;;;;;;4991050;28;20434;-70
2021/12/27 04:09:28;;;;;;;61.00;21.60;;;;;;;;;;4993681;28;20061;-70
2021/12/27 04:11:54;;;;;;;60.35;22.00;;;;;;;;;;4992134;28;20034;-70
2021/12/27 04:14:20;;;;;;;64.35;22.10;;;;;;;;;;4987299;28;20039;-70
2021/12/27 04:16:46;;;;;;;66.57;23.73;;;;;;;;;;4987673;28;20037;-70
2021/12/27 04:19:12;;;;;;;70.00;22.42;;;;;;;;;;4986925;28;20038;-70
2021/12/27 04:21:38;;;;;;;61.13;20.80;;;;;;;;;;4988224;28;20180;-70
2021/12/27 04:24:04;;;;;;;66.93;22.85;;;;;;;;;;4986941;28;20080;-70
2021/12/27 04:26:30;;;;;;;66.68;22.00;;;;;;;;;;4995350;28;20030;-70
2021/12/27 04:28:56;;;;;;;67.43;23.92;;;;;;;;;;4990392;28;20096;-70
2021/12/27 04:31:22;;;;;;;71.97;22.77;;;;;;;;;;4987909;28;20046;-70
2021/12/27 04:33:48;;;;;;;70.30;23.73;;;;;;;;;;4988369;28;20046;-70
2021/12/27 04:36:14;;;;;;;74.35;24.10;;;;;;;;;;4986329;28;20038;-70
2021/12/27 04:38:42;;;;;;;73.90;24.50;;;;;;;;;;4988338;28;20833;-72
2021/12/27 04:41:08;;;;;;;62.28;23.13;;;;;;;;;;4987825;28;20117;-70
2021/12/27 04:43:34;;;;;;;66.85;22.23;;;;;;;;;;4989392;28;20426;-70
2021/12/27 04:46:00;;;;;;;62.03;22.70;;;;;;;;;;4991403;28;20025;-70
2021/12/27 04:48:26;;;;;;;63.90;22.40;;;;;;;;;;4985572;28;20037;-70
2021/12/27 04:50:52;;;;;;;71.20;23.80;;;;;;;;;;4994551;28;20066;-70
2021/12/27 04:53:18;;;;;;;69.10;21.77;;;;;;;;;;4987949;28;20991;-70
2021/12/27 04:55:45;;;;;;;67.38;21.63;;;;;;;;;;4986177;28;20034;-70
2021/12/27 04:58:11;;;;;;;65.45;22.80;;;;;;;;;;4992557;28;20044;-70
2021/12/27 05:00:37;;;;;;;68.97;24.10;;;;;;;;;;4990240;28;20039;-70
2021/12/27 05:03:03;;;;;;;67.78;23.60;;;-5.40;99.90;;;;;;4992584;28;20080;-70
2021/12/27 05:05:31;;;;;;;68.22;23.13;;;;;;;;;;4992577;28;20064;-70
2021/12/27 05:07:57;;;;;;;62.25;23.58;;;;;;;;;;4990906;28;20034;-70
2021/12/27 05:10:23;;;;;;;78.65;25.48;;;;;;;;;;4989164;28;20069;-70
2021/12/27 05:12:49;;;;;;;73.97;23.33;;;;;;;;;;4991465;28;20490;-70
2021/12/27 05:15:15;;;;;;;66.80;23.77;;;;;;;;;;4984729;28;20093;-70
2021/12/27 05:17:41;;;;;;;68.38;22.48;;;;;;;;;;4986453;28;20042;-70
2021/12/27 05:20:08;;;;;;;69.57;23.15;;;;;;;;;;4987221;28;20165;-70
2021/12/27 05:22:34;;;;;;;77.38;24.85;;;;;;;;;;4990771;28;20570;-70
2021/12/27 05:25:00;;;;;;;65.80;23.77;;;;;;;;;;4988738;28;20120;-70
2021/12/27 05:27:26;;;;;;;72.70;23.27;;;;;;;;;;4986027;28;20153;-70
2021/12/27 05:29:52;;;;;;;79.80;24.77;;;;;;;;;;4985629;28;20400;-70
2021/12/27 05:32:18;;;;;;;67.60;25.10;;;;;;;;;;4986279;28;20045;-70
2021/12/27 05:34:44;;;;;;;73.40;23.02;;;;;;;;;;4988621;28;20041;-70
2021/12/27 05:37:10;;;;;;;76.03;25.50;;;;;;;;;;4987885;28;20061;-70
2021/12/27 05:39:36;;;;;;;67.05;24.05;;;;;;;;;;4988751;28;20096;-70
2021/12/27 05:42:02;;;;;;;68.82;23.95;;;;;;;;;;4986417;28;20030;-70
2021/12/27 05:44:28;;;;;;;71.95;23.52;;;;;;;;;;4990084;28;20469;-70
2021/12/27 05:46:54;;;;;;;70.18;24.48;;;;;;;;;;4972184;28;20045;-70
2021/12/27 05:49:20;;;;;;;63.67;22.65;;;;;;;;;;4989664;28;20034;-70
2021/12/27 05:51:46;;;;;;;70.50;23.88;;;;;;;;;;4987439;28;20085;-70
2021/12/27 05:54:13;;;;;;;79.47;24.27;;;;;;;;;;4984592;28;20118;-70
2021/12/27 05:56:39;;;;;;;75.47;24.63;;;;;;;;;;4987518;28;20038;-70
2021/12/27 05:59:05;;;;;;;70.55;24.35;;;;;;;;;;4984755;28;20414;-70
2021/12/27 06:01:30;;;;;;;73.25;23.30;;;-4.80;99.90;;;;;;4989529;28;20022;-70
2021/12/27 06:03:58;;;;;;;70.10;22.75;;;;;;;;;;4988333;28;20110;-70
2021/12/27 06:06:24;;;;;;;71.47;24.08;;;;;;;;;;4984003;28;20046;-70
2021/12/27 06:08:50;;;;;;;73.28;23.65;;;;;;;;;;4991735;28;20046;-70
2021/12/27 06:11:16;;;;;;;67.93;23.95;;;;;;;;;;4984074;28;20046;-71
2021/12/27 06:13:43;;;;;;;78.43;23.92;;;;;;;;;;4982196;28;20046;-70
2021/12/27 06:16:09;;;;;;;72.47;25.40;;;;;;;;;;4984474;28;20034;-70
2021/12/27 06:18:35;;;;;;;74.35;25.90;;;;;;;;;;4983328;28;20038;-70
2021/12/27 06:21:01;;;;;;;72.10;24.27;;;;;;;;;;4983963;28;20034;-70
2021/12/27 06:23:27;;;;;;;69.68;24.73;;;-4.60;99.90;;;;;;4985989;28;20026;-70
2021/12/27 06:25:52;;;;;;;73.82;24.65;;;-4.30;99.90;;;;;;4987407;28;20034;-69
2021/12/27 06:28:18;;;;;;;76.85;25.98;;;;;;;;;;4993705;28;20037;-70
2021/12/27 06:30:44;;;;;;;70.55;24.40;;;;;;;;;;4989116;28;20599;-70
2021/12/27 06:33:10;;;;;;;68.03;24.00;;;;;;;;;;4976402;28;20030;-70
2021/12/27 06:35:36;;;;;;;61.28;23.92;;;;;;;;;;4984289;28;20796;-70
2021/12/27 06:38:02;;;;;;;74.47;25.88;;;;;;;;;;4984692;28;20039;-70
2021/12/27 06:40:28;;;;;;;70.53;24.08;;;-4.20;99.90;;;;;;4983805;28;20695;-69
2021/12/27 06:42:54;;;;;;;77.75;25.95;;;-4.40;99.90;;;;;;4990971;28;20030;-70
2021/12/27 06:45:20;;;;;;;73.90;24.33;;;;;;;;;;4989384;28;20040;-70
2021/12/27 06:47:46;;;;;;;73.45;24.35;;;;;;;;;;4983963;28;20030;-70
2021/12/27 06:50:12;;;;;;;78.65;23.85;;;;;;;;;;4984504;28;20752;-70
2021/12/27 06:52:38;;;;;;;71.30;24.52;;;;;;;;;;4984216;28;20074;-70
2021/12/27 06:55:04;;;;;;;75.22;24.73;;;;;;;;;;4982224;28;20073;-70
2021/12/27 06:57:30;;;;;;;62.20;22.98;;;;;;;;;;4978591;28;20755;-70
2021/12/27 06:59:56;;;;;;;72.30;26.35;;;;;;;;;;4986427;28;20061;-70
2021/12/27 07:02:22;;;;;;;73.45;24.60;;;;;;;;;;4983181;28;20038;-70
2021/12/27 07:04:48;;;;;;;78.95;27.00;;;;;;;;;;4986172;28;20037;-70
2021/12/27 07:07:14;;;;;;;71.90;25.48;;;;;;;;;;4984120;28;20061;-70
2021/12/27 07:09:40;;;;;;;76.28;24.90;;;-4.10;99.90;;;;;;4982682;28;20570;-70
2021/12/27 07:12:06;;;;;;;70.65;25.70;;;;;;;;;;4987262;28;20041;-70
2021/12/27 07:14:32;;;;;;;73.78;25.00;;;;;;;;;;4981645;28;20835;-70
2021/12/27 07:16:58;;;;;;;77.20;25.90;;;;;;;;;;4985383;28;20034;-70
2021/12/27 07:19:24;;;;;;;69.72;24.58;;;;;;;;;;4984775;28;20105;-70
2021/12/27 07:21:50;;;;;;;70.53;24.60;;;;;;;;;;4985134;28;20038;-70
2021/12/27 07:24:16;;;;;;;77.88;25.92;;;;;;;;;;4980115;28;20105;-70
2021/12/27 07:26:42;;;;;;;73.88;26.15;;;;;;;;;;4985108;28;20569;-70
2021/12/27 07:29:08;;;;;;;75.38;24.95;;;;;;;;;;4982353;28;20072;-70
2021/12/27 07:31:34;;;;;;;81.28;26.40;;;;;;;;;;4981614;28;20838;-70
2021/12/27 07:34:01;;;;;;;71.45;26.15;;;;;;;;;;4982345;28;20037;-70
2021/12/27 07:36:27;;;;;;;71.30;26.05;;;;;;;;;;4982871;28;20034;-70
2021/12/27 07:38:52;;;;;;;79.97;25.67;;;-3.80;99.90;;;;;;4985741;28;20073;-70
2021/12/27 07:41:18;;;;;;;75.57;24.90;;;;;;;;;;4988381;28;20113;-70
2021/12/27 07:43:44;;;;;;;71.72;25.73;;;;;;;;;;4984653;28;20070;-70
2021/12/27 07:46:10;;;;;;;70.32;26.40;;;;;;;;;;4989786;28;20038;-70
2021/12/27 07:48:36;;;;;;;72.40;25.08;;;;;;;;;;4987697;28;20035;-70
2021/12/27 07:51:02;;;;;;;74.75;25.90;;;;;;;;;;4981700;28;20435;-70
2021/12/27 07:53:28;;;;;;;76.95;25.90;;;;;;;;;;4978703;28;20270;-70
2021/12/27 07:55:54;;;;;;;74.60;25.70;;;;;;;;;;4984330;28;20447;-70
2021/12/27 07:58:20;;;;;;;76.63;26.02;;;;;;;;;;4979784;28;20041;-70
2021/12/27 08:00:50;;;;;;;78.05;26.40;;;;;;;;;;4973586;28;20084;-70
2021/12/27 08:03:16;;;;;;;66.75;25.45;;;;;;;;;;4996231;28;20042;-70
2021/12/27 08:05:42;;;;;;;70.53;25.13;;;;;;;;;;4986462;28;20072;-70
2021/12/27 08:08:08;;;;;;;76.45;25.52;;;;;;;;;;4985698;28;20073;-70
2021/12/27 08:10:34;;;;;;;78.88;26.38;;;;;;;;;;4982003;28;20031;-71
2021/12/27 08:13:01;;;;;;;73.13;24.40;;;;;;;;;;4980402;28;20046;-70
2021/12/27 08:15:27;;;;;;;68.60;27.15;;;;;;;;;;4983989;28;20035;-70
2021/12/27 08:17:53;;;;;;;67.05;23.75;;;;;;;;;;4983591;28;20049;-70
2021/12/27 08:20:19;;;;;;;73.63;25.95;;;;;;;;;;4981239;28;20027;-70
2021/12/27 08:22:45;;;;;;;71.93;25.73;;;;;;;;;;4976390;28;20102;-70
2021/12/27 08:25:11;;;;;;;76.53;26.65;;;;;;;;;;4976699;28;20723;-70
2021/12/27 08:27:37;;;;;;;76.40;26.83;;;;;;;;;;4979457;28;20039;-70
2021/12/27 08:30:04;;;;;;;73.15;26.42;;;-3.30;99.90;;;;;;4979386;28;20422;-70
2021/12/27 08:32:30;;;;;;;67.45;25.63;;;;;;;;;;4978064;28;20380;-70
2021/12/27 08:34:56;;;;;;;67.45;24.75;;;;;;;;;;4976222;28;20042;-70
2021/12/27 08:37:22;;;;;;;67.18;24.63;;;;;;;;;;4976169;28;20100;-70
2021/12/27 08:39:48;;;;;;;67.90;24.55;;;-3.40;99.90;;;;;;4987621;28;20112;-70
2021/12/27 08:42:14;;;;;;;68.93;26.58;;;;;;;;;;4987596;28;20034;-68
2021/12/27 08:44:40;;;;;;;68.78;24.58;;;;;;;;;;4992778;28;20553;-68
2021/12/27 08:47:06;;;;;;;71.03;24.27;;;;;;;;;;4989866;28;20037;-68
2021/12/27 08:49:32;;;;;;;89.75;26.35;;;;;;;;;;4984351;28;20125;-68
2021/12/27 08:51:58;;;;;;;67.35;24.90;;;;;;;;;;4979923;28;20068;-68
2021/12/27 08:54:24;;;;;;;65.50;24.40;;;;;;;;;;4985365;28;20037;-68
2021/12/27 08:56:50;;;;;;;68.95;24.70;;;;;;;;;;4986698;28;20038;-68
2021/12/27 08:59:16;;;;;;;72.10;25.30;;;;;;;;;;4990095;28;20032;-68
2021/12/27 09:01:42;;;;;;;68.28;25.25;;;;;;;;;;4989246;28;20026;-69
2021/12/27 09:04:09;;;;;;;69.28;25.60;;;;;;;;;;4989949;28;20034;-70
2021/12/27 09:06:35;;;;;;;76.03;26.08;;;-2.80;99.90;;;;;;4983832;28;20038;-68
2021/12/27 09:09:00;;;;;;;72.57;25.25;;;-3.00;99.90;;;;;;4973696;28;20426;-68
2021/12/27 09:11:26;;;;;;;76.35;25.38;;;;;;;;;;4966553;28;20034;-68
2021/12/27 09:13:52;;;;;;;69.88;23.98;;;;;;;;;;4976528;28;20287;-68
2021/12/27 09:16:18;;;;;;;79.40;26.23;;;;;;;;;;4987256;28;20739;-68
2021/12/27 09:18:44;;;;;;;67.57;24.58;;;;;;;;;;4987221;28;20478;-68
2021/12/27 09:21:10;;;;;;;67.10;23.80;;;;;;;;;;4981863;28;20164;-68
2021/12/27 09:23:36;;;;;;;74.10;26.58;;;;;;;;;;4986040;28;20034;-68
2021/12/27 09:26:02;;;;;;;73.43;25.42;;;;;;;;;;4990010;28;20037;-68
2021/12/27 09:28:29;;;;;;;67.03;24.90;;;;;;;;;;4985714;28;20544;-68
2021/12/27 09:30:55;;;;;;;74.85;25.73;;;;;;;;;;4982182;28;20041;-68
2021/12/27 09:33:22;;;;;;;73.55;28.15;;;;;;;;;;4985515;28;20030;-68
2021/12/27 09:35:48;;;;;;;71.97;26.02;;;;;;;;;;4984714;28;20034;-68
2021/12/27 09:38:14;;;;;;;65.68;25.40;;;;;;;;;;4967936;28;20490;-68
2021/12/27 09:40:40;;;;;;;74.07;26.15;;;;;;;;;;4988817;28;20568;-68
2021/12/27 09:43:06;;;;;;;65.20;24.48;;;;;;;;;;4989955;28;20030;-68
2021/12/27 09:45:32;;;;;;;69.95;26.30;;;;;;;;;;4984574;28;20033;-68
2021/12/27 09:47:58;;;;;;;72.25;26.45;;;;;;;;;;4975601;28;20034;-69
2021/12/27 09:50:24;;;;;;;67.85;25.75;;;;;;;;;;4982076;28;20786;-69
2021/12/27 09:52:50;;;;;;;68.72;26.15;;;;;;;;;;4979119;28;20049;-69
2021/12/27 09:55:16;;;;;;;73.15;25.30;;;;;;;;;;4978904;28;20069;-68
2021/12/27 09:57:42;;;;;;;78.30;26.20;;;;;;;;;;4980140;28;20040;-69
2021/12/27 10:00:08;;;;;;;67.70;23.88;;;;;;;;;;4983977;28;20084;-69
2021/12/27 10:02:34;;;;;;;71.72;25.77;;;;;;;;;;4978650;28;20050;-69
2021/12/27 10:05:00;;;;;;;70.32;26.02;;;;;;;;;;4974612;28;20390;-69
2021/12/27 10:07:27;;;;;;;67.80;25.10;;;;;;;;;;4991271;28;20034;-69
2021/12/27 10:09:54;;;;;;;69.97;25.15;;;;;;;;;;4978030;28;20577;-69
2021/12/27 10:12:20;;;;;;;76.32;25.80;;;-1.90;99.90;;;;;;4975334;28;20034;-69
2021/12/27 10:14:45;;;;;;;78.90;27.40;;;-2.10;99.90;;;;;;4977397;28;20027;-70
2021/12/27 10:17:11;;;;;;;65.75;25.02;;;;;;;;;;4981656;28;20689;-70
2021/12/27 10:19:37;;;;;;;71.72;24.70;;;;;;;;;;4983724;28;20106;-69
2021/12/27 10:22:03;;;;;;;73.80;26.63;;;;;;;;;;4982319;28;20060;-70
2021/12/27 10:24:29;;;;;;;72.95;25.15;;;;;;;;;;4977634;28;20041;-69
2021/12/27 10:26:55;;;;;;;71.82;26.27;;;;;;;;;;4972647;28;20030;-70
2021/12/27 10:29:23;;;;;;;72.70;25.40;;;;;;;;;;4980328;28;20026;-69
2021/12/27 10:31:49;;;;;;;73.75;26.42;;;;;;;;;;4983756;28;20524;-69
2021/12/27 10:34:15;;;;;;;70.80;24.95;;;;;;;;;;4980858;28;20030;-69
2021/12/27 10:36:41;;;;;;;64.22;25.85;;;;;;;;;;4982014;28;20045;-69
2021/12/27 10:39:07;;;;;;;70.60;25.25;;;;;;;;;;4966220;28;20062;-69
2021/12/27 10:41:33;;;;;;;63.40;25.92;;;;;;;;;;4993779;28;20126;-69
2021/12/27 10:43:59;;;;;;;72.07;25.73;;;;;;;;;;4976892;28;20023;-69
2021/12/27 10:46:25;;;;;;;77.00;27.00;;;;;;;;;;4976623;28;20059;-69
2021/12/27 10:48:54;;;;;;;69.38;25.30;;;;;;;;;;4979958;28;20041;-70
2021/12/27 10:51:20;;;;;;;65.68;24.23;;;;;;;;;;4974115;28;20030;-70
2021/12/27 10:53:46;;;;;;;71.05;24.63;;;;;;;;;;4980052;28;20076;-70
2021/12/27 10:56:12;;;;;;;61.90;23.40;;;;;;;;;;4977870;28;20069;-71
2021/12/27 10:58:38;;;;;;;67.82;25.60;;;;;;;;;;4980361;28;20118;-70
2021/12/27 11:01:04;;;;;;;67.10;25.73;;;;;;;;;;4984650;28;20053;-71
2021/12/27 11:03:30;;;;;;;70.53;24.85;;;;;;;;;;4985369;28;20797;-69
2021/12/27 11:05:56;;;;;;;75.05;26.42;;;;;;;;;;4981834;28;20053;-69
2021/12/27 11:08:22;;;;;;;64.93;24.48;;;;;;;;;;4982371;28;20082;-69
2021/12/27 11:10:48;;;;;;;66.13;24.30;;;;;;;;;;4980115;28;20072;-69
2021/12/27 11:13:14;;;;;;;66.57;24.52;;;;;;;;;;4986143;28;20037;-69
2021/12/27 11:15:41;;;;;;;71.38;24.90;;;-1.60;99.90;;;;;;4986986;28;20030;-70
2021/12/27 11:18:07;;;;;;;72.88;24.75;;;;;;;;;;4989319;28;20046;-69
2021/12/27 11:20:33;;;;;;;63.42;24.38;;;;;;;;;;4989309;28;20065;-69
2021/12/27 11:22:59;;;;;;;72.88;25.95;;;;;;;;;;4987528;28;20109;-69
2021/12/27 11:25:25;;;;;;;67.93;25.35;;;;;;;;;;4978138;28;20137;-68
2021/12/27 11:27:51;;;;;;;67.72;25.77;;;;;;;;;;4982775;28;20027;-70
2021/12/27 11:30:22;;;;;;;80.78;29.30;;;;;;;;;;4983666;28;20069;-69
2021/12/27 11:32:48;;;;;;;66.45;24.30;;;;;;;;;;5001484;28;20038;-70
2021/12/27 11:35:14;;;;;;;62.47;23.05;;;-1.20;99.90;;;;;;4979446;28;20668;-69
2021/12/27 11:37:40;;;;;;;70.35;24.60;;;;;;;;;;4995787;28;20072;-71
2021/12/27 11:40:06;;;;;;;64.20;24.20;;;;;;;;;;4987711;28;20053;-68
2021/12/27 11:42:32;;;;;;;72.35;27.00;;;;;;;;;;4989237;28;20462;-68
2021/12/27 11:44:58;;;;;;;75.35;26.00;;;;;;;;;;4983131;28;20034;-69
2021/12/27 11:47:24;;;;;;;63.60;23.42;;;;;;;;;;4981390;28;20035;-69
2021/12/27 11:49:50;;;;;;;62.53;23.60;;;;;;;;;;4982120;28;20033;-68
2021/12/27 11:52:16;;;;;;;70.75;25.90;;;;;;;;;;4979312;28;20400;-69
2021/12/27 11:54:42;;;;;;;69.18;25.35;;;;;;;;;;4980262;28;20118;-68
2021/12/27 11:57:08;;;;;;;68.43;24.67;;;;;;;;;;4984789;28;20036;-68
2021/12/27 11:59:37;;;;;;;66.88;24.02;;;;;;;;;;4985845;28;20065;-69
2021/12/27 12:02:04;;;;;;;72.90;24.75;;;;;;;;;;4991681;28;20146;-69
2021/12/27 12:04:30;;;;;;;70.38;26.38;;;;;;;;;;4979333;28;20506;-69
2021/12/27 12:06:56;;;;;;;65.85;23.80;;;;;;;;;;4981103;28;20039;-68
2021/12/27 12:09:22;;;;;;;67.30;24.13;;;;;;;;;;4965003;28;20030;-69
2021/12/27 12:11:48;;;;;;;67.78;24.92;;;;;;;;;;4983298;28;20092;-69
2021/12/27 12:14:14;;;;;;;67.63;24.63;;;;;;;;;;4984071;28;20038;-69
2021/12/27 12:16:40;;;;;;;67.45;24.85;;;;;;;;;;4991400;28;20112;-69
2021/12/27 12:19:07;;;;;;;64.47;25.50;;;-0.70;99.90;;;;;;4989322;28;20873;-69
2021/12/27 12:21:33;;;;;;;66.40;23.33;;;;;;;;;;4984954;28;20027;-69
2021/12/27 12:23:59;;;;;;;68.15;23.98;;;;;;;;;;4981724;28;20022;-68
2021/12/27 12:26:25;;;;;;;63.90;24.48;;;-0.40;99.90;;;;;;4983025;28;20030;-69
2021/12/27 12:28:51;;;;;;;71.38;23.92;;;;;;;;;;4987676;28;20045;-69
2021/12/27 12:31:17;;;;;;;61.08;23.60;;;;;;;;;;4983447;28;20065;-69
2021/12/27 12:33:43;;;;;;;69.05;24.98;;;;;;;;;;4992945;28;20092;-68
2021/12/27 12:36:11;;;;;;;66.65;25.08;;;;;;;;;;4988956;28;20449;-69
2021/12/27 12:38:38;;;;;;;71.55;24.23;;;;;;;;;;4987184;28;20054;-69
2021/12/27 12:41:04;;;;;;;70.68;27.98;;;;;;;;;;4981699;28;20093;-70
2021/12/27 12:43:30;;;;;;;61.72;22.73;;;;;;;;;;4973426;28;20053;-69
2021/12/27 12:45:56;;;;;;;64.25;24.80;;;;;;;;;;4976588;28;20022;-69
2021/12/27 12:48:22;;;;;;;66.93;24.95;;;;;;;;;;4978677;28;20042;-68
2021/12/27 12:50:48;;;;;;;63.13;24.85;;;;;;;;;;4977959;28;20054;-69
2021/12/27 12:53:14;;;;;;;62.40;24.83;;;;;;;;;;4985813;28;20133;-69
2021/12/27 12:55:40;;;;;;;60.80;23.95;;;;;;;;;;4984499;28;20085;-69
2021/12/27 12:58:06;;;;;;;66.40;24.08;;;;;;;;;;4991035;28;20034;-68
2021/12/27 13:00:32;;;;;;;67.95;25.92;;;;;;;;;;4996747;28;20026;-69
2021/12/27 13:02:58;;;;;;;62.30;24.45;;;;;;;;;;4982007;28;20585;-68
2021/12/27 13:05:24;;;;;;;66.55;23.95;;;;;;;;;;4983172;28;20035;-69
2021/12/27 13:07:50;;;;;;;66.75;24.73;;;;;;;;;;4986073;28;20065;-68
2021/12/27 13:10:16;;;;;;;62.88;23.77;;;;;;;;;;4985044;28;20058;-68
2021/12/27 13:12:42;;;;;;;70.05;24.65;;;;;;;;;;4988058;28;20034;-68
2021/12/27 13:15:08;;;;;;;65.32;23.92;;;;;;;;;;4985333;28;20031;-66
2021/12/27 13:17:37;;;;;;;71.22;24.50;;;;;;;;;;4986708;28;20117;-66
2021/12/27 13:20:03;;;;;;;62.15;23.35;;;;;;;;;;4986891;28;20128;-66
2021/12/27 13:22:29;;;;;;;59.00;22.92;;;;;;;;;;4984567;28;20145;-66
2021/12/27 13:24:55;;;;;;;67.70;24.63;;;;;;;;;;4982458;28;20815;-66
2021/12/27 13:27:21;;;;;;;64.60;24.85;;;-0.40;99.90;;;;;;4983282;28;20104;-66
2021/12/27 13:29:47;;;;;;;63.35;24.50;;;;;;;;;;4973266;28;20034;-66
2021/12/27 13:32:13;;;;;;;61.83;24.45;;;;;;;;;;4990189;28;20044;-66
2021/12/27 13:34:39;;;;;;;61.47;23.58;;;;;;;;;;4985271;28;20498;-66
2021/12/27 13:37:05;;;;;;;64.25;25.08;;;;;;;;;;4983352;28;20049;-66
2021/12/27 13:39:32;;;;;;;69.38;25.05;;;;;;;;;;4990519;28;20034;-67
2021/12/27 13:41:58;;;;;;;60.28;24.48;;;;;;;;;;4986202;28;20038;-66
2021/12/27 13:44:24;;;;;;;68.97;24.48;;;;;;;;;;4982685;28;20039;-66
2021/12/27 13:46:49;;;;;;;65.25;24.55;;;-0.10;99.90;;;;;;4986863;28;20035;-66
2021/12/27 13:49:15;;;;;;;63.88;23.88;;;;;;;;;;4968594;28;20093;-66
2021/12/27 13:51:42;;;;;;;61.10;23.92;;;;;;;;;;4984990;28;20173;-70
2021/12/27 13:54:09;;;;;;;62.00;25.05;;;;;;;;;;4987774;28;20145;-65
2021/12/27 13:56:35;;;;;;;73.65;24.63;;;;;;;;;;4990499;28;20805;-65
2021/12/27 13:59:01;;;;;;;65.93;24.30;;;;;;;;;;4986631;28;20042;-65
2021/12/27 14:01:27;;;;;;;58.90;25.48;;;;;;;;;;4985273;28;20108;-64
2021/12/27 14:03:53;;;;;;;63.28;23.45;;;;;;;;;;4980222;28;20498;-64
2021/12/27 14:06:19;;;;;;;67.35;23.67;;;;;;;;;;4981856;28;20065;-64